Time;durP1;ratioP1;P1;durP2;ratioP2;P2;SDS_P1;SDS_P2;PMS_P1;PMS_P2;Temp;Humidity;BMP_temperature;BMP_pressure;BME280_temperature;BME280_humidity;BME280_pressure;Samples;Min_cycle;Max_cycle;Signal;HPM_P1;HPM_P2
2022/01/19 00:02:24;;;;;;;105.63;45.33;;;-0.10;99.90;;;;;;10446997;28;20060;-82
2022/01/19 00:07:25;;;;;;;110.57;46.27;;;-0.10;99.90;;;;;;10430685;28;20056;-82
2022/01/19 00:12:26;;;;;;;107.00;45.23;;;-0.10;99.90;;;;;;10430062;28;20049;-82
2022/01/19 00:17:27;;;;;;;98.47;43.70;;;-0.10;99.90;;;;;;10430349;28;20182;-81
2022/01/19 00:22:28;;;;;;;97.87;40.77;;;-0.10;99.90;;;;;;10447963;28;20032;-82
2022/01/19 00:27:29;;;;;;;116.70;46.63;;;-0.10;99.90;;;;;;10466703;28;20421;-85
2022/01/19 00:32:30;;;;;;;111.10;48.83;;;-0.10;99.90;;;;;;10447941;28;20029;-84
2022/01/19 00:37:31;;;;;;;121.47;54.70;;;-0.10;99.90;;;;;;10447115;28;20033;-83
2022/01/19 00:42:31;;;;;;;121.67;55.03;;;-0.10;99.90;;;;;;10462765;28;20037;-83
2022/01/19 00:47:33;;;;;;;131.40;56.13;;;-0.10;99.90;;;;;;10455930;28;20434;-84
2022/01/19 00:52:35;;;;;;;124.87;55.43;;;-0.10;99.90;;;;;;10470850;28;20029;-83
2022/01/19 00:57:37;;;;;;;116.83;53.53;;;-0.10;99.90;;;;;;10436006;28;20029;-81
2022/01/19 01:02:38;;;;;;;124.07;54.77;;;-0.10;99.90;;;;;;10467588;28;20037;-81
2022/01/19 01:07:40;;;;;;;129.27;54.27;;;-0.10;99.90;;;;;;10460925;28;20461;-84
2022/01/19 01:12:52;;;;;;;121.07;49.93;;;-0.10;99.90;;;;;;10454348;28;20061;-84
2022/01/19 01:23:04;;;;;;;109.67;44.77;;;-0.10;99.90;;;;;;10470538;28;20044;-83
2022/01/19 01:28:07;;;;;;;105.40;44.97;;;-0.10;99.90;;;;;;10437392;28;20719;-82
2022/01/19 01:33:07;;;;;;;112.90;46.03;;;-0.10;99.90;;;;;;10470912;28;20108;-82
2022/01/19 01:38:08;;;;;;;99.10;41.57;;;-0.10;99.90;;;;;;10490704;28;20112;-86
2022/01/19 01:43:09;;;;;;;118.67;48.37;;;0.00;99.90;;;;;;10471079;28;20029;-82
2022/01/19 01:48:16;;;;;;;101.70;44.37;;;-0.10;99.90;;;;;;10450211;28;20051;-81
2022/01/19 01:53:29;;;;;;;98.60;43.67;;;-0.10;99.90;;;;;;10452051;28;20435;-82
2022/01/19 01:58:32;;;;;;;118.53;47.77;;;-0.10;99.90;;;;;;10479688;28;20043;-82
2022/01/19 02:03:38;;;;;;;112.77;45.47;;;-0.10;99.90;;;;;;10464284;28;20060;-81
2022/01/19 02:08:46;;;;;;;105.53;45.90;;;-0.10;99.90;;;;;;10438521;28;20091;-86
2022/01/19 02:24:31;;;;;;;101.97;42.17;;;0.00;99.90;;;;;;10457193;28;20480;-85
2022/01/19 02:40:13;;;;;;;83.77;37.63;;;0.00;99.90;;;;;;10450542;28;20049;-81
2022/01/19 02:50:14;;;;;;;94.30;39.37;;;0.00;99.90;;;;;;10450974;28;20131;-82
2022/01/19 02:55:15;;;;;;;90.47;39.17;;;0.00;99.90;;;;;;10428768;28;20042;-84
2022/01/19 03:10:55;;;;;;;88.43;39.13;;;0.00;99.90;;;;;;10446481;28;20416;-82
2022/01/19 03:15:56;;;;;;;80.10;35.13;;;0.00;99.90;;;;;;10431296;28;20048;-86
2022/01/19 03:20:57;;;;;;;88.10;34.77;;;0.00;99.90;;;;;;10449548;28;20072;-81
2022/01/19 03:25:58;;;;;;;77.20;34.10;;;0.00;99.90;;;;;;10449229;28;20025;-82
2022/01/19 03:30:59;;;;;;;74.30;31.83;;;0.00;99.90;;;;;;10430838;28;20067;-81
2022/01/19 03:36:00;;;;;;;72.03;30.33;;;0.00;99.90;;;;;;10448904;28;20032;-82
2022/01/19 03:41:00;;;;;;;78.47;31.93;;;0.10;99.90;;;;;;10449585;28;20100;-82
2022/01/19 03:46:04;;;;;;;79.07;31.37;;;0.10;99.90;;;;;;10448456;28;20033;-82
2022/01/19 03:51:05;;;;;;;71.27;33.37;;;0.10;99.90;;;;;;10430318;28;20044;-84
2022/01/19 03:56:06;;;;;;;65.80;28.10;;;0.10;99.90;;;;;;10448229;28;20471;-86
2022/01/19 04:01:07;;;;;;;70.00;29.47;;;0.10;99.90;;;;;;10456295;28;20025;-81
2022/01/19 04:06:30;;;;;;;70.43;29.03;;;0.10;99.90;;;;;;10450786;28;20619;-80
2022/01/19 04:11:30;;;;;;;64.73;29.67;;;0.20;99.90;;;;;;10484461;28;20127;-83
2022/01/19 04:16:34;;;;;;;78.30;32.97;;;0.10;99.90;;;;;;10447552;28;20387;-85
2022/01/19 04:21:35;;;;;;;69.90;30.13;;;0.10;99.90;;;;;;10455237;28;20054;-82
2022/01/19 04:26:35;;;;;;;70.57;29.37;;;0.20;99.90;;;;;;10455442;28;20102;-81
2022/01/19 04:31:36;;;;;;;81.20;34.23;;;0.20;99.90;;;;;;10455650;28;20431;-82
2022/01/19 04:37:09;;;;;;;80.00;31.73;;;0.10;99.90;;;;;;10462067;28;20021;-84
2022/01/19 05:03:36;;;;;;;76.07;31.50;;;0.00;99.90;;;;;;10467187;28;20115;-84
2022/01/19 05:08:58;;;;;;;76.57;32.53;;;-0.10;99.90;;;;;;10455048;28;20753;-84
2022/01/19 05:13:58;;;;;;;84.13;34.33;;;-0.20;99.90;;;;;;10435737;28;20044;-85
2022/01/19 05:18:59;;;;;;;85.57;36.67;;;-0.40;99.90;;;;;;10434522;28;20032;-86
2022/01/19 05:24:04;;;;;;;101.80;42.40;;;-0.50;99.90;;;;;;10441652;28;20026;-81
2022/01/19 05:29:05;;;;;;;82.67;34.80;;;-0.60;99.90;;;;;;10435384;28;20076;-90
2022/01/19 05:34:07;;;;;;;82.47;36.40;;;-0.70;99.90;;;;;;10434284;28;20320;-82
2022/01/19 05:39:16;;;;;;;87.87;36.43;;;-0.80;99.90;;;;;;10442712;28;20353;-82
2022/01/19 05:44:27;;;;;;;96.07;39.03;;;-0.80;99.90;;;;;;10442708;28;20029;-87
2022/01/19 05:49:28;;;;;;;111.30;47.67;;;-0.90;99.90;;;;;;10431595;28;20028;-82
2022/01/19 05:54:29;;;;;;;97.80;43.40;;;-0.90;99.90;;;;;;10445638;28;20029;-83
2022/01/19 05:59:29;;;;;;;100.83;44.07;;;-0.90;99.90;;;;;;10463966;28;20033;-85
2022/01/19 06:04:30;;;;;;;106.67;47.47;;;-0.80;99.90;;;;;;10466349;28;20112;-82
2022/01/19 06:09:36;;;;;;;111.43;48.27;;;-0.80;99.90;;;;;;10447287;28;20036;-81
2022/01/19 06:14:38;;;;;;;;;;;-0.80;99.90;;;;;;10451842;28;20053;-84
2022/01/19 06:19:39;;;;;;;216.87;75.80;;;-0.80;99.90;;;;;;10450415;28;19912;-82
2022/01/19 06:24:40;;;;;;;123.53;52.33;;;-0.80;99.90;;;;;;10441088;28;20435;-82
2022/01/19 06:29:40;;;;;;;181.23;67.07;;;-0.80;99.90;;;;;;10450309;28;20048;-82
2022/01/19 06:34:41;;;;;;;164.50;62.23;;;-0.80;99.90;;;;;;10451434;28;20025;-83
2022/01/19 06:39:42;;;;;;;120.47;52.40;;;-1.00;99.90;;;;;;10434042;28;20029;-82
2022/01/19 06:44:43;;;;;;;141.13;58.20;;;-1.10;99.90;;;;;;10447359;28;20017;-83
2022/01/19 06:49:43;;;;;;;142.63;57.53;;;-1.20;99.90;;;;;;10447895;28;20033;-82
2022/01/19 06:54:44;;;;;;;115.73;45.43;;;-1.30;99.90;;;;;;10449068;28;20036;-83
2022/01/19 06:59:45;;;;;;;88.77;38.23;;;-1.30;99.90;;;;;;10447859;28;20028;-82
2022/01/19 07:04:49;;;;;;;93.47;38.40;;;-1.40;99.90;;;;;;10491090;28;20020;-86
2022/01/19 07:09:51;;;;;;;93.90;39.77;;;-1.40;99.90;;;;;;10491939;28;20479;-82
2022/01/19 07:14:51;;;;;;;90.60;38.47;;;-1.40;99.90;;;;;;10492033;28;20487;-82
2022/01/19 07:19:52;;;;;;;82.93;38.03;;;-1.40;99.90;;;;;;10473009;28;20052;-82
2022/01/19 07:24:53;;;;;;;69.53;32.43;;;-1.20;99.90;;;;;;10491103;28;20084;-82
2022/01/19 07:29:53;;;;;;;63.67;29.03;;;-1.10;99.90;;;;;;10490252;28;20033;-83
2022/01/19 07:34:54;;;;;;;83.63;32.83;;;-0.90;99.90;;;;;;10491355;28;20025;-86
2022/01/19 07:39:57;;;;;;;73.13;32.93;;;-0.70;99.90;;;;;;10491205;28;20107;-82
2022/01/19 07:44:58;;;;;;;80.67;35.50;;;-0.50;99.90;;;;;;10491185;28;20036;-82
2022/01/19 07:49:59;;;;;;;74.30;31.43;;;-0.40;99.90;;;;;;10490848;28;20033;-82
2022/01/19 07:55:00;;;;;;;62.10;26.70;;;-0.40;99.90;;;;;;10495370;28;20021;-86
2022/01/19 08:00:03;;;;;;;74.33;38.10;;;-0.30;99.90;;;;;;10499509;28;20024;-82
2022/01/19 08:05:04;;;;;;;85.93;44.17;;;-0.30;99.90;;;;;;10498548;28;20541;-82
2022/01/19 08:10:07;;;;;;;67.27;28.57;;;-0.30;99.90;;;;;;10498460;28;20048;-82
2022/01/19 08:15:08;;;;;;;77.77;33.80;;;-0.10;99.90;;;;;;10498644;28;20051;-83
2022/01/19 08:20:09;;;;;;;63.73;28.17;;;-0.10;99.90;;;;;;10480154;28;20025;-83
2022/01/19 08:25:10;;;;;;;161.20;65.13;;;-0.10;99.90;;;;;;10437980;28;20026;-87
2022/01/19 08:30:12;;;;;;;89.47;39.50;;;0.00;99.90;;;;;;10415041;28;20416;-87
2022/01/19 08:35:13;;;;;;;64.33;25.20;;;0.30;99.90;;;;;;10454611;28;20025;-84
2022/01/19 08:40:14;;;;;;;62.23;26.37;;;0.40;99.90;;;;;;10455912;28;20025;-86
2022/01/19 08:45:15;;;;;;;82.37;34.33;;;0.80;99.90;;;;;;10437424;28;20029;-83
2022/01/19 08:50:16;;;;;;;68.03;29.13;;;1.00;99.90;;;;;;10455732;28;20091;-85
2022/01/19 08:55:17;;;;;;;83.10;34.83;;;1.10;99.90;;;;;;10455727;28;20031;-84
2022/01/19 09:00:20;;;;;;;136.57;55.83;;;1.10;99.90;;;;;;10455197;28;20021;-83
2022/01/19 09:05:20;;;;;;;140.80;59.80;;;0.90;99.90;;;;;;10437035;28;20029;-83
2022/01/19 09:10:22;;;;;;;103.00;38.93;;;0.90;99.90;;;;;;10455280;28;20550;-88
2022/01/19 09:15:23;;;;;;;75.23;30.03;;;0.90;99.90;;;;;;10454472;28;20416;-87
2022/01/19 09:20:25;;;;;;;318.57;123.23;;;1.00;99.90;;;;;;10436506;28;20154;-87
2022/01/19 09:25:26;;;;;;;110.93;41.53;;;1.10;99.90;;;;;;10436171;28;20040;-83
2022/01/19 09:30:27;;;;;;;125.00;51.17;;;1.30;99.90;;;;;;10453927;28;20479;-86
2022/01/19 09:35:28;;;;;;;65.77;29.70;;;1.50;99.90;;;;;;10453556;28;20039;-84
2022/01/19 09:40:29;;;;;;;61.80;31.50;;;1.50;99.90;;;;;;10464780;28;20033;-88
2022/01/19 09:45:30;;;;;;;75.00;32.13;;;1.50;99.90;;;;;;10476757;28;20505;-83
2022/01/19 09:50:31;;;;;;;58.20;27.67;;;1.70;99.90;;;;;;10494989;28;20036;-82
2022/01/19 09:55:33;;;;;;;61.07;29.70;;;1.90;99.90;;;;;;10476716;28;20021;-83
2022/01/19 10:00:35;;;;;;;69.67;29.40;;;1.90;99.90;;;;;;10493864;28;20041;-83
2022/01/19 10:05:36;;;;;;;86.50;40.00;;;1.80;99.90;;;;;;10494097;28;20400;-85
2022/01/19 10:10:37;;;;;;;68.50;30.77;;;1.80;99.90;;;;;;10493522;28;20040;-83
2022/01/19 10:21:16;;;;;;;53.50;24.93;;;1.80;99.90;;;;;;10493676;28;20115;-85
2022/01/19 10:26:24;;;;;;;63.40;31.33;;;2.00;99.90;;;;;;10493383;28;20029;-89
2022/01/19 10:31:26;;;;;;;63.20;29.40;;;2.00;99.90;;;;;;10492631;28;20591;-84
2022/01/19 10:36:43;;;;;;;50.53;23.53;;;2.00;99.90;;;;;;10493610;28;20545;-84
2022/01/19 10:42:04;;;;;;;50.23;22.93;;;2.10;99.90;;;;;;10492146;28;20035;-84
2022/01/19 10:47:05;;;;;;;53.80;24.43;;;2.20;99.90;;;;;;10492218;28;20027;-83
2022/01/19 10:52:06;;;;;;;47.20;23.93;;;2.20;99.90;;;;;;10491952;28;20021;-85
2022/01/19 10:57:14;;;;;;;55.63;26.67;;;2.10;99.90;;;;;;10492009;28;20020;-84
2022/01/19 11:02:16;;;;;;;47.37;21.07;;;2.10;99.90;;;;;;10491739;28;20020;-84
2022/01/19 11:07:22;;;;;;;44.87;20.73;;;2.20;99.90;;;;;;10491285;28;20369;-85
2022/01/19 11:12:28;;;;;;;46.33;22.17;;;2.30;99.90;;;;;;10492095;28;20131;-83
2022/01/19 11:17:29;;;;;;;42.50;21.08;;;2.30;99.90;;;;;;10491048;28;20516;-83
2022/01/19 11:22:35;;;;;;;42.23;21.57;;;2.40;99.90;;;;;;10491482;28;20016;-83
2022/01/19 11:27:44;;;;;;;45.43;22.67;;;2.50;99.90;;;;;;10471998;28;20043;-84
2022/01/19 11:33:25;;;;;;;43.70;21.57;;;2.60;99.90;;;;;;10491006;28;20025;-85
2022/01/19 11:38:36;;;;;;;46.00;22.60;;;2.60;99.90;;;;;;10490752;28;20027;-82
2022/01/19 11:43:47;;;;;;;42.10;21.53;;;2.80;99.90;;;;;;10473339;28;20039;-83
2022/01/19 11:48:47;;;;;;;37.60;19.80;;;2.80;99.90;;;;;;10472371;28;20064;-82
2022/01/19 11:54:08;;;;;;;43.93;20.87;;;2.70;99.90;;;;;;10490627;28;20052;-83
2022/01/19 11:59:09;;;;;;;51.93;23.77;;;2.70;99.90;;;;;;10490994;28;20016;-81
2022/01/19 12:04:19;;;;;;;45.97;23.60;;;2.80;99.90;;;;;;10490235;28;20430;-85
2022/01/19 12:09:19;;;;;;;51.67;26.33;;;2.90;99.90;;;;;;10490569;28;20371;-83
2022/01/19 12:14:27;;;;;;;54.43;25.20;;;2.80;99.90;;;;;;10490591;28;20135;-83
2022/01/19 12:19:41;;;;;;;54.80;26.00;;;2.80;99.90;;;;;;10490623;28;20016;-84
2022/01/19 12:24:54;;;;;;;133.97;54.30;;;2.80;99.90;;;;;;10490278;28;20025;-82
2022/01/19 12:30:09;;;;;;;63.37;27.73;;;2.90;99.90;;;;;;10489507;28;20047;-82
2022/01/19 12:35:15;;;;;;;96.65;39.92;;;3.00;99.90;;;;;;10490141;28;20167;-82
2022/01/19 12:40:19;;;;;;;69.43;29.70;;;3.10;99.90;;;;;;10492401;28;20017;-82
2022/01/19 12:45:28;;;;;;;74.23;32.17;;;3.10;99.90;;;;;;10496970;28;20028;-82
2022/01/19 12:50:28;;;;;;;38.73;19.40;;;3.10;99.90;;;;;;10496841;28;20047;-82
2022/01/19 12:55:34;;;;;;;46.70;22.27;;;3.10;99.90;;;;;;10497300;28;20029;-84
2022/01/19 13:00:35;;;;;;;39.53;19.42;;;3.10;99.90;;;;;;10479005;28;20178;-83
2022/01/19 13:05:45;;;;;;;47.70;23.00;;;3.10;99.90;;;;;;10496196;28;20025;-84
2022/01/19 13:10:50;;;;;;;41.73;20.10;;;3.10;99.90;;;;;;10496894;28;20460;-81
2022/01/19 13:15:54;;;;;;;36.60;18.00;;;3.20;99.90;;;;;;10496678;28;20056;-83
2022/01/19 13:20:57;;;;;;;39.80;20.13;;;3.20;99.90;;;;;;10496356;28;20013;-81
2022/01/19 13:26:04;;;;;;;38.53;20.30;;;3.20;99.90;;;;;;10495439;28;20048;-82
2022/01/19 13:31:22;;;;;;;43.33;19.57;;;3.20;99.90;;;;;;10496220;28;20106;-84
2022/01/19 13:36:30;;;;;;;41.40;20.93;;;3.10;99.90;;;;;;10495712;28;20025;-82
2022/01/19 13:41:32;;;;;;;44.83;22.47;;;3.20;99.90;;;;;;10495132;28;20020;-82
2022/01/19 13:46:35;;;;;;;37.40;19.17;;;3.10;99.90;;;;;;10494462;28;20369;-82
2022/01/19 13:51:42;;;;;;;55.07;26.87;;;3.20;99.90;;;;;;10493661;28;20488;-81
2022/01/19 13:56:43;;;;;;;43.43;21.37;;;3.20;99.90;;;;;;10481598;28;20530;-82
2022/01/19 14:01:59;;;;;;;56.63;25.97;;;3.10;99.90;;;;;;10454267;28;20079;-82
2022/01/19 14:07:13;;;;;;;62.87;27.83;;;3.10;99.90;;;;;;10455272;28;20033;-82
2022/01/19 14:12:18;;;;;;;59.13;26.43;;;3.10;99.90;;;;;;10475293;28;20400;-81
2022/01/19 14:17:28;;;;;;;44.50;19.77;;;3.10;99.90;;;;;;10493825;28;20492;-82
2022/01/19 14:22:33;;;;;;;68.10;29.90;;;3.10;99.90;;;;;;10450917;28;20036;-80
2022/01/19 14:27:42;;;;;;;66.60;27.53;;;3.00;99.90;;;;;;10452613;28;20045;-83
2022/01/19 14:32:53;;;;;;;65.30;28.10;;;3.00;99.90;;;;;;10450778;28;20029;-81
2022/01/19 14:38:04;;;;;;;106.43;44.30;;;2.90;99.90;;;;;;10440639;28;20037;-82
2022/01/19 14:43:12;;;;;;;187.13;78.60;;;2.80;99.90;;;;;;10411614;28;20048;-85
2022/01/19 14:48:16;;;;;;;317.67;118.97;;;2.70;99.90;;;;;;10459785;28;20040;-84
2022/01/19 14:53:17;;;;;;;390.30;145.40;;;2.60;99.90;;;;;;10491397;28;20032;-84
2022/01/19 14:58:18;;;;;;;407.50;163.93;;;2.50;99.90;;;;;;10483596;28;20036;-81
2022/01/19 15:03:19;;;;;;;256.57;100.40;;;2.30;99.90;;;;;;10449939;28;20029;-82
2022/01/19 15:08:20;;;;;;;117.30;46.73;;;2.10;99.90;;;;;;10448654;28;20041;-85
2022/01/19 15:13:20;;;;;;;160.10;64.07;;;2.00;99.90;;;;;;10451247;28;20115;-82
2022/01/19 15:18:21;;;;;;;70.37;30.13;;;1.80;99.90;;;;;;10442009;28;20099;-82
2022/01/19 15:23:22;;;;;;;168.47;73.50;;;1.70;99.90;;;;;;10440853;28;20029;-82
2022/01/19 15:28:24;;;;;;;152.27;63.73;;;1.60;99.90;;;;;;10424104;28;20040;-86
2022/01/19 15:33:25;;;;;;;202.70;88.30;;;1.50;99.90;;;;;;10453171;28;20039;-83
2022/01/19 15:38:26;;;;;;;137.50;62.83;;;1.30;99.90;;;;;;10449065;28;20609;-86
2022/01/19 15:43:26;;;;;;;129.67;49.30;;;1.30;99.90;;;;;;10457511;28;20120;-86
2022/01/19 15:48:27;;;;;;;164.40;66.57;;;1.20;99.90;;;;;;10441181;28;20041;-84
2022/01/19 15:53:29;;;;;;;116.67;51.33;;;1.10;99.90;;;;;;10437602;28;20041;-82
2022/01/19 15:58:30;;;;;;;176.87;66.40;;;1.10;99.90;;;;;;10430932;28;20036;-84
2022/01/19 16:03:30;;;;;;;86.60;35.03;;;1.10;99.90;;;;;;10448556;28;20033;-85
2022/01/19 16:08:31;;;;;;;103.30;40.97;;;1.00;99.90;;;;;;10448891;28;20395;-83
2022/01/19 16:13:32;;;;;;;84.10;32.60;;;0.90;99.90;;;;;;10447936;28;20098;-83
2022/01/19 16:18:32;;;;;;;88.13;36.23;;;0.90;99.90;;;;;;10449553;28;20025;-84
2022/01/19 16:28:55;;;;;;;80.37;32.63;;;0.80;99.90;;;;;;10458715;28;20128;-85
2022/01/19 16:33:56;;;;;;;74.73;32.33;;;0.70;99.90;;;;;;10454171;28;20115;-84
2022/01/19 16:38:57;;;;;;;94.03;38.57;;;0.70;99.90;;;;;;10426968;28;20123;-83
2022/01/19 16:43:58;;;;;;;74.43;32.67;;;0.60;99.90;;;;;;10475421;28;20032;-83
2022/01/19 16:49:05;;;;;;;67.30;30.87;;;0.60;99.90;;;;;;10442358;28;20037;-84
2022/01/19 16:54:06;;;;;;;68.93;31.87;;;0.50;99.90;;;;;;10443243;28;20029;-86
2022/01/19 16:59:06;;;;;;;354.40;207.87;;;0.50;99.90;;;;;;10436289;28;20032;-84
2022/01/19 17:04:08;;;;;;;178.53;75.67;;;0.50;99.90;;;;;;10431808;28;20120;-84
2022/01/19 17:09:11;;;;;;;121.07;49.03;;;0.40;99.90;;;;;;10446003;28;20037;-83
2022/01/19 17:14:22;;;;;;;143.37;58.13;;;0.30;99.90;;;;;;10446226;28;20118;-85
2022/01/19 17:19:27;;;;;;;136.73;52.33;;;0.40;99.90;;;;;;10479578;28;20052;-83
2022/01/19 17:24:28;;;;;;;131.20;57.10;;;0.30;99.90;;;;;;10483722;28;20029;-84
2022/01/19 17:29:29;;;;;;;169.73;73.30;;;0.20;99.90;;;;;;10453636;28;20079;-83
2022/01/19 17:34:30;;;;;;;224.87;85.67;;;0.20;99.90;;;;;;10430997;28;20473;-83
2022/01/19 17:39:31;;;;;;;207.13;83.50;;;0.10;99.90;;;;;;10453491;28;20037;-83
2022/01/19 17:44:32;;;;;;;215.27;76.03;;;0.10;99.90;;;;;;10451114;28;20045;-82
2022/01/19 17:49:50;;;;;;;246.17;78.67;;;0.10;99.90;;;;;;10452718;28;20043;-83
2022/01/19 17:54:50;;;;;;;214.93;74.50;;;0.10;99.90;;;;;;10431761;28;20032;-81
2022/01/19 17:59:54;;;;;;;141.77;52.10;;;0.10;99.90;;;;;;10453130;28;20033;-82
2022/01/19 18:04:54;;;;;;;286.57;86.40;;;0.10;99.90;;;;;;10474044;28;20594;-82
2022/01/19 18:09:55;;;;;;;222.30;69.03;;;0.10;99.90;;;;;;10449870;28;20097;-83
2022/01/19 18:14:56;;;;;;;205.77;67.03;;;0.10;99.90;;;;;;10460504;28;20048;-81
2022/01/19 18:19:57;;;;;;;189.77;60.63;;;0.10;99.90;;;;;;10441846;28;20029;-84
2022/01/19 18:24:58;;;;;;;217.33;70.73;;;0.10;99.90;;;;;;10462771;28;20036;-81
2022/01/19 18:29:58;;;;;;;322.30;112.23;;;0.10;99.90;;;;;;10455523;28;20041;-82
2022/01/19 18:34:59;;;;;;;262.80;87.20;;;0.10;99.90;;;;;;10465304;28;20385;-82
2022/01/19 18:40:04;;;;;;;125.93;50.60;;;0.10;99.90;;;;;;10442811;28;20093;-83
2022/01/19 18:45:05;;;;;;;180.43;65.33;;;0.10;99.90;;;;;;10449240;28;20025;-81
2022/01/19 18:50:07;;;;;;;271.63;93.03;;;0.10;99.90;;;;;;10462509;28;20749;-85
2022/01/19 18:55:10;;;;;;;169.23;61.27;;;0.00;99.90;;;;;;10457408;28;20025;-87
2022/01/19 19:00:14;;;;;;;194.50;67.83;;;0.00;99.90;;;;;;10465898;28;20039;-84
2022/01/19 19:05:17;;;;;;;117.47;42.43;;;0.00;99.90;;;;;;10440009;28;20262;-81
2022/01/19 19:15:24;;;;;;;211.37;83.57;;;0.10;99.90;;;;;;10480814;28;20071;-84
2022/01/19 19:20:26;;;;;;;181.23;66.30;;;0.10;99.90;;;;;;10443092;28;20017;-82
2022/01/19 19:25:28;;;;;;;277.77;125.47;;;0.10;99.90;;;;;;10444861;28;20079;-82
2022/01/19 19:30:31;;;;;;;154.93;62.30;;;0.00;99.90;;;;;;10449602;28;20091;-81
2022/01/19 19:35:32;;;;;;;117.40;45.13;;;0.00;99.90;;;;;;10431154;28;20021;-84
2022/01/19 19:40:33;;;;;;;114.00;45.37;;;-0.10;99.90;;;;;;10439986;28;20104;-82
2022/01/19 19:45:34;;;;;;;109.37;42.77;;;-0.10;99.90;;;;;;10412135;28;20497;-82
2022/01/19 19:50:36;;;;;;;98.40;39.33;;;-0.10;99.90;;;;;;10426003;28;20052;-82
2022/01/19 19:55:37;;;;;;;107.40;42.87;;;-0.20;99.90;;;;;;10444311;28;20060;-83
2022/01/19 20:00:39;;;;;;;91.10;36.63;;;-0.20;99.90;;;;;;10456080;28;20052;-85
2022/01/19 20:05:39;;;;;;;81.60;34.87;;;-0.20;99.90;;;;;;10455021;28;20481;-83
2022/01/19 20:10:43;;;;;;;82.30;33.07;;;-0.20;99.90;;;;;;10458548;28;20111;-83
2022/01/19 20:15:44;;;;;;;76.83;32.03;;;-0.10;99.90;;;;;;10454525;28;20049;-83
2022/01/19 20:20:45;;;;;;;74.67;31.30;;;-0.10;99.90;;;;;;10473331;28;20028;-83
2022/01/19 20:25:46;;;;;;;82.17;31.37;;;0.00;99.90;;;;;;10456403;28;20025;-85
2022/01/19 20:30:46;;;;;;;76.53;31.93;;;0.20;99.90;;;;;;10454682;28;20040;-84
2022/01/19 20:35:49;;;;;;;79.80;29.67;;;0.20;99.90;;;;;;10434575;28;20750;-83
2022/01/19 20:40:50;;;;;;;50.40;23.53;;;0.30;99.90;;;;;;10454907;28;20040;-85
2022/01/19 20:45:50;;;;;;;75.63;27.43;;;0.40;99.90;;;;;;10449930;28;20513;-84
2022/01/19 20:50:51;;;;;;;48.73;19.80;;;0.40;99.90;;;;;;10449535;28;20041;-83
2022/01/19 20:55:52;;;;;;;41.23;17.23;;;0.50;99.90;;;;;;10456190;28;20044;-83
2022/01/19 21:00:54;;;;;;;39.80;17.67;;;0.70;99.90;;;;;;10470144;28;20033;-83
2022/01/19 21:05:55;;;;;;;48.80;19.93;;;0.70;99.90;;;;;;10435070;28;20032;-82
2022/01/19 21:10:56;;;;;;;46.23;18.40;;;0.70;99.90;;;;;;10458810;28;20036;-84
2022/01/19 21:15:57;;;;;;;46.20;19.80;;;0.80;99.90;;;;;;10424585;28;20061;-82
2022/01/19 21:21:01;;;;;;;67.87;21.80;;;0.90;99.90;;;;;;10453910;28;20033;-82
2022/01/19 21:26:02;;;;;;;46.43;20.43;;;0.90;99.90;;;;;;10425287;28;20029;-83
2022/01/19 21:31:05;;;;;;;37.23;17.70;;;0.90;99.90;;;;;;10437944;28;20146;-84
2022/01/19 21:36:06;;;;;;;44.00;17.70;;;0.80;99.90;;;;;;10477573;28;20392;-84
2022/01/19 21:41:08;;;;;;;49.83;20.90;;;0.70;99.90;;;;;;10456671;28;20064;-84
2022/01/19 21:46:10;;;;;;;44.53;19.97;;;0.80;99.90;;;;;;10423350;28;20036;-83
2022/01/19 21:51:11;;;;;;;57.43;22.57;;;0.80;99.90;;;;;;10438774;28;20048;-83
2022/01/19 21:56:12;;;;;;;41.30;18.33;;;0.80;99.90;;;;;;10437800;28;20402;-83
2022/01/19 22:01:14;;;;;;;40.43;18.03;;;0.90;99.90;;;;;;10436037;28;20030;-84
2022/01/19 22:06:15;;;;;;;46.23;18.47;;;0.90;99.90;;;;;;10444035;28;20033;-83
2022/01/19 22:11:16;;;;;;;38.40;17.60;;;0.90;99.90;;;;;;10423008;28;20496;-84
2022/01/19 22:16:16;;;;;;;39.83;17.37;;;0.90;99.90;;;;;;10450678;28;20053;-84
2022/01/19 22:21:19;;;;;;;44.73;20.00;;;0.90;99.90;;;;;;10451421;28;20037;-85
2022/01/19 22:26:20;;;;;;;51.10;19.07;;;1.00;99.90;;;;;;10463672;28;20025;-84
2022/01/19 22:31:21;;;;;;;49.50;20.93;;;1.10;99.90;;;;;;10478629;28;20041;-82
2022/01/19 22:36:22;;;;;;;39.97;17.23;;;1.10;99.90;;;;;;10434055;28;20056;-82
2022/01/19 22:41:23;;;;;;;41.50;19.93;;;1.20;99.90;;;;;;10474505;28;20154;-84
2022/01/19 22:46:24;;;;;;;49.73;19.27;;;1.20;99.90;;;;;;10450650;28;20025;-86
2022/01/19 22:51:24;;;;;;;48.40;18.30;;;1.30;99.90;;;;;;10458794;28;20059;-84
2022/01/19 22:56:25;;;;;;;52.00;20.07;;;1.40;99.90;;;;;;10474323;28;20035;-83
2022/01/19 23:01:27;;;;;;;44.70;19.33;;;1.40;99.90;;;;;;10461366;28;20032;-85
2022/01/19 23:06:27;;;;;;;48.47;18.40;;;1.50;99.90;;;;;;10461721;28;20082;-82
2022/01/19 23:11:31;;;;;;;34.53;16.80;;;1.50;99.90;;;;;;10467510;28;20089;-83
2022/01/19 23:16:31;;;;;;;34.97;16.77;;;1.60;99.90;;;;;;10456932;28;20049;-83
2022/01/19 23:21:32;;;;;;;39.77;18.10;;;1.70;99.90;;;;;;10478500;28;20033;-83
2022/01/19 23:26:41;;;;;;;39.77;17.40;;;1.70;99.90;;;;;;10453676;28;20523;-84
2022/01/19 23:31:47;;;;;;;43.73;18.53;;;1.70;99.90;;;;;;10454593;28;20037;-83
2022/01/19 23:37:03;;;;;;;43.87;19.17;;;1.70;99.90;;;;;;10449311;28;20029;-83
2022/01/19 23:52:43;;;;;;;43.87;19.93;;;1.70;99.90;;;;;;10449264;28;20028;-84
2022/01/19 23:58:07;;;;;;;43.10;20.70;;;1.70;99.90;;;;;;10453517;28;20033;-84
